createdAt,value
2018-11-22T00:00:00.786Z,31.73
2018-11-22T00:02:27.621Z,36.17
2018-11-22T00:04:54.458Z,30.50
2018-11-22T00:07:21.296Z,37.27
2018-11-22T00:09:48.131Z,31.37
2018-11-22T00:12:14.968Z,32.10
2018-11-22T00:14:41.888Z,32.13
2018-11-22T00:17:08.780Z,28.80
2018-11-22T00:19:35.615Z,35.93
2018-11-22T00:22:02.443Z,35.88
2018-11-22T00:24:29.272Z,30.60
2018-11-22T00:26:56.112Z,36.50
2018-11-22T00:29:22.951Z,35.00
2018-11-22T00:31:49.788Z,29.80
2018-11-22T00:34:16.620Z,34.03
2018-11-22T00:36:43.456Z,33.83
2018-11-22T00:39:11.251Z,35.73
2018-11-22T00:41:38.091Z,32.00
2018-11-22T00:44:04.964Z,32.00
2018-11-22T00:46:31.803Z,30.53
2018-11-22T00:48:58.649Z,31.80
2018-11-22T00:51:25.484Z,34.13
2018-11-22T00:53:52.308Z,36.87
2018-11-22T00:56:19.148Z,31.20
2018-11-22T00:58:45.988Z,33.97
2018-11-22T01:01:12.843Z,35.00
2018-11-22T01:03:39.680Z,33.70
2018-11-22T01:06:06.515Z,30.80
2018-11-22T01:08:33.356Z,30.00
2018-11-22T01:11:00.191Z,30.53
2018-11-22T01:13:27.027Z,33.67
2018-11-22T01:15:53.860Z,33.60
2018-11-22T01:18:20.702Z,31.43
2018-11-22T01:20:47.536Z,33.70
2018-11-22T01:23:14.383Z,34.70
2018-11-22T01:25:41.216Z,37.78
2018-11-22T01:28:08.048Z,33.43
2018-11-22T01:30:34.876Z,32.63
2018-11-22T01:33:01.735Z,31.23
2018-11-22T01:35:28.557Z,31.67
2018-11-22T01:37:55.385Z,34.40
2018-11-22T01:40:23.207Z,32.60
2018-11-22T01:42:50.043Z,32.80
2018-11-22T01:45:19.360Z,32.83
2018-11-22T01:47:46.188Z,32.03
2018-11-22T01:50:14.166Z,36.13
2018-11-22T01:52:41.312Z,34.57
2018-11-22T01:55:09.908Z,33.33
2018-11-22T01:57:36.812Z,36.28
2018-11-22T02:00:05.780Z,32.20
2018-11-22T02:02:32.608Z,34.40
2018-11-22T02:04:59.449Z,30.10
2018-11-22T02:07:26.299Z,32.13
2018-11-22T02:09:53.124Z,34.50
2018-11-22T02:12:19.979Z,33.53
2018-11-22T02:14:46.819Z,33.20
2018-11-22T02:17:13.657Z,33.90
2018-11-22T02:19:40.522Z,34.70
2018-11-22T02:22:07.356Z,36.33
2018-11-22T02:24:34.211Z,33.07
2018-11-22T02:27:01.051Z,36.35
2018-11-22T02:29:27.892Z,42.93
2018-11-22T02:31:54.734Z,31.63
2018-11-22T02:34:21.564Z,32.37
2018-11-22T02:36:48.409Z,32.40
2018-11-22T02:39:15.256Z,33.13
2018-11-22T02:41:42.101Z,36.33
2018-11-22T02:44:08.940Z,35.50
2018-11-22T02:46:35.780Z,38.47
2018-11-22T02:49:02.716Z,35.60
2018-11-22T02:51:29.557Z,40.63
2018-11-22T02:53:56.399Z,37.43
2018-11-22T02:56:23.248Z,39.75
2018-11-22T02:58:50.083Z,40.57
2018-11-22T03:01:16.924Z,36.87
2018-11-22T03:03:43.757Z,36.77
2018-11-22T03:06:10.596Z,38.95
2018-11-22T03:08:37.426Z,40.60
2018-11-22T03:11:04.987Z,35.40
2018-11-22T03:13:31.823Z,35.27
2018-11-22T03:15:58.668Z,34.47
2018-11-22T03:18:25.497Z,41.77
2018-11-22T03:20:52.340Z,36.93
2018-11-22T03:23:19.184Z,37.60
2018-11-22T03:25:46.016Z,39.00
2018-11-22T03:28:12.856Z,36.63
2018-11-22T03:30:39.692Z,41.37
2018-11-22T03:33:06.535Z,31.73
2018-11-22T03:35:33.373Z,40.88
2018-11-22T03:38:00.233Z,43.30
2018-11-22T03:40:27.232Z,39.78
2018-11-22T03:42:54.157Z,37.27
2018-11-22T03:45:21.492Z,35.83
2018-11-22T03:47:48.332Z,35.13
2018-11-22T03:50:17.128Z,36.40
2018-11-22T03:52:44.700Z,35.80
2018-11-22T03:55:12.784Z,37.00
2018-11-22T03:57:39.897Z,35.33
2018-11-22T04:00:08.748Z,32.63
2018-11-22T04:02:35.580Z,33.63
2018-11-22T04:05:02.446Z,38.93
2018-11-22T04:07:29.277Z,37.60
2018-11-22T04:09:56.131Z,39.10
2018-11-22T04:12:22.973Z,37.50
2018-11-22T04:14:49.808Z,37.50
2018-11-22T04:17:16.644Z,31.73
2018-11-22T04:19:43.484Z,39.25
2018-11-22T04:22:10.324Z,36.13
2018-11-22T04:24:37.165Z,36.13
2018-11-22T04:27:04.318Z,37.00
2018-11-22T04:29:31.152Z,41.98
2018-11-22T04:31:57.988Z,38.17
2018-11-22T04:34:24.816Z,39.92
2018-11-22T04:36:51.657Z,36.67
2018-11-22T04:39:18.503Z,38.93
2018-11-22T04:41:45.416Z,41.27
2018-11-22T04:44:12.275Z,34.30
2018-11-22T04:46:39.114Z,41.00
2018-11-22T04:49:05.940Z,38.73
2018-11-22T04:51:32.771Z,39.07
2018-11-22T04:53:59.755Z,35.07
2018-11-22T04:56:26.596Z,35.23
2018-11-22T04:58:53.571Z,35.53
2018-11-22T05:01:20.413Z,37.70
2018-11-22T05:03:47.240Z,39.07
2018-11-22T05:06:14.088Z,36.57
2018-11-22T05:08:40.921Z,36.93
2018-11-22T05:11:07.777Z,39.50
2018-11-22T05:13:34.610Z,43.90
2018-11-22T05:16:01.449Z,38.13
2018-11-22T05:18:28.285Z,38.43
2018-11-22T05:20:55.128Z,37.03
2018-11-22T05:23:22.051Z,41.03
2018-11-22T05:25:48.867Z,38.33
2018-11-22T05:28:15.703Z,39.27
2018-11-22T05:30:42.560Z,38.23
2018-11-22T05:33:09.401Z,42.80
2018-11-22T05:35:36.225Z,45.67
2018-11-22T05:38:03.072Z,42.60
2018-11-22T05:40:30.788Z,36.13
2018-11-22T05:42:57.097Z,44.67
2018-11-22T05:45:25.269Z,42.03
2018-11-22T05:47:52.101Z,40.40
2018-11-22T05:50:20.493Z,38.53
2018-11-22T05:52:47.735Z,38.60
2018-11-22T05:55:15.104Z,39.77
2018-11-22T05:57:41.940Z,38.63
2018-11-22T06:00:12.559Z,36.63
2018-11-22T06:02:39.412Z,38.03
2018-11-22T06:05:06.891Z,41.88
2018-11-22T06:07:33.765Z,37.10
2018-11-22T06:10:00.684Z,40.63
2018-11-22T06:12:27.553Z,39.27
2018-11-22T06:14:54.423Z,40.60
2018-11-22T06:17:21.276Z,37.87
2018-11-22T06:19:48.148Z,40.13
2018-11-22T06:22:15.021Z,36.87
2018-11-22T06:24:41.887Z,43.77
2018-11-22T06:27:08.760Z,39.93
2018-11-22T06:29:35.599Z,36.73
2018-11-22T06:32:02.457Z,36.93
2018-11-22T06:34:29.365Z,37.20
2018-11-22T06:36:56.237Z,37.53
2018-11-22T06:39:23.112Z,35.77
2018-11-22T06:41:49.992Z,37.03
2018-11-22T06:44:16.853Z,39.20
2018-11-22T06:46:43.737Z,36.90
2018-11-22T06:49:10.605Z,35.87
2018-11-22T06:51:37.493Z,38.17
2018-11-22T06:54:04.688Z,38.53
2018-11-22T06:56:31.535Z,41.07
2018-11-22T06:58:58.402Z,36.30
2018-11-22T07:01:25.259Z,38.30
2018-11-22T07:03:52.124Z,34.57
2018-11-22T07:06:19.076Z,38.10
2018-11-22T07:08:45.976Z,34.10
2018-11-22T07:11:12.830Z,36.60
2018-11-22T07:13:39.699Z,36.83
2018-11-22T07:16:06.560Z,39.47
2018-11-22T07:18:33.428Z,34.90
2018-11-22T07:21:00.300Z,35.47
2018-11-22T07:23:27.164Z,38.55
2018-11-22T07:25:54.078Z,34.57
2018-11-22T07:28:20.939Z,35.83
2018-11-22T07:30:47.809Z,39.83
2018-11-22T07:33:14.685Z,40.03
2018-11-22T07:35:41.562Z,36.90
2018-11-22T07:38:08.940Z,43.40
2018-11-22T07:40:35.984Z,37.73
2018-11-22T07:43:03.280Z,39.57
2018-11-22T07:45:32.017Z,35.70
2018-11-22T07:47:59.889Z,34.50
2018-11-22T07:50:26.758Z,33.90
2018-11-22T07:52:56.039Z,40.80
2018-11-22T07:55:21.136Z,40.33
2018-11-22T07:57:48.024Z,37.33
2018-11-22T08:00:18.424Z,38.77
2018-11-22T08:02:46.265Z,36.67
2018-11-22T08:05:13.795Z,69.17
2018-11-22T08:07:41.319Z,37.07
2018-11-22T08:10:09.781Z,43.63
2018-11-22T08:12:36.699Z,44.67
2018-11-22T08:15:04.109Z,38.53
2018-11-22T08:17:30.975Z,46.33
2018-11-22T08:19:57.809Z,45.67
2018-11-22T08:22:24.710Z,47.50
2018-11-22T08:24:51.502Z,36.70
2018-11-22T08:27:18.444Z,39.07
2018-11-22T08:29:45.308Z,40.10
2018-11-22T08:32:12.157Z,38.10
2018-11-22T08:34:39.065Z,38.97
2018-11-22T08:37:05.950Z,40.07
2018-11-22T08:39:32.825Z,44.73
2018-11-22T08:41:59.684Z,38.20
2018-11-22T08:44:26.612Z,40.60
2018-11-22T08:46:53.484Z,37.83
2018-11-22T08:49:20.363Z,41.00
2018-11-22T08:51:47.232Z,39.97
2018-11-22T08:54:14.181Z,36.33
2018-11-22T08:56:41.038Z,40.30
2018-11-22T08:59:07.941Z,39.83
2018-11-22T09:01:34.834Z,40.30
2018-11-22T09:04:01.733Z,40.60
2018-11-22T09:06:28.609Z,28.63
2018-11-22T09:08:55.720Z,36.60
2018-11-22T09:11:22.589Z,35.40
2018-11-22T09:13:49.452Z,34.33
2018-11-22T09:16:16.327Z,33.70
2018-11-22T09:18:43.184Z,34.20
2018-11-22T09:21:10.067Z,35.60
2018-11-22T09:23:38.525Z,34.10
2018-11-22T09:26:04.082Z,32.50
2018-11-22T09:28:30.964Z,36.68
2018-11-22T09:30:57.845Z,32.13
2018-11-22T09:33:24.714Z,33.33
2018-11-22T09:35:51.583Z,29.63
2018-11-22T09:38:18.462Z,34.78
2018-11-22T09:40:45.338Z,33.90
2018-11-22T09:43:12.208Z,28.90
2018-11-22T09:45:39.897Z,29.13
2018-11-22T09:48:06.764Z,33.30
2018-11-22T09:50:33.627Z,42.87
2018-11-22T09:53:01.765Z,31.17
2018-11-22T09:55:29.209Z,33.57
2018-11-22T09:57:56.073Z,33.17
2018-11-22T10:00:23.322Z,31.67
2018-11-22T10:02:50.233Z,30.10
2018-11-22T10:05:18.524Z,34.00
2018-11-22T10:07:45.339Z,36.57
2018-11-22T10:10:13.847Z,28.80
2018-11-22T10:12:40.739Z,30.27
2018-11-22T10:15:09.166Z,32.63
2018-11-22T10:17:36.155Z,30.27
2018-11-22T10:20:03.324Z,31.63
2018-11-22T10:22:30.294Z,31.57
2018-11-22T10:24:57.250Z,29.50
2018-11-22T10:27:24.115Z,33.70
2018-11-22T10:29:51.006Z,29.17
2018-11-22T10:32:17.878Z,35.60
2018-11-22T10:34:44.755Z,29.40
2018-11-22T10:37:11.631Z,28.90
2018-11-22T10:39:38.508Z,30.80
2018-11-22T10:42:05.877Z,33.60
2018-11-22T10:44:32.757Z,27.60
2018-11-22T10:46:59.647Z,31.60
2018-11-22T10:49:26.524Z,34.30
2018-11-22T10:51:53.400Z,28.80
2018-11-22T10:54:20.280Z,30.43
2018-11-22T10:56:47.180Z,29.43
2018-11-22T10:59:14.073Z,29.83
2018-11-22T11:01:46.655Z,36.35
2018-11-22T11:04:19.307Z,32.10
2018-11-22T11:06:50.783Z,29.20
2018-11-22T11:09:17.752Z,33.90
2018-11-22T11:11:44.616Z,30.30
2018-11-22T11:14:11.472Z,33.77
2018-11-22T11:16:38.329Z,31.50
2018-11-22T11:19:05.280Z,31.30
2018-11-22T11:21:32.109Z,31.70
2018-11-22T11:23:58.991Z,58.73
2018-11-22T11:26:25.889Z,29.63
2018-11-22T11:28:52.732Z,33.93
2018-11-22T11:31:19.572Z,33.83
2018-11-22T11:33:46.414Z,34.10
2018-11-22T11:36:17.824Z,37.27
2018-11-22T11:38:40.199Z,34.25
2018-11-22T11:41:07.055Z,36.10
2018-11-22T11:43:33.960Z,33.07
2018-11-22T11:46:00.811Z,34.77
2018-11-22T11:48:27.698Z,30.87
2018-11-22T11:50:54.584Z,31.53
2018-11-22T11:53:25.164Z,30.23
2018-11-22T11:55:48.356Z,29.40
2018-11-22T11:58:15.236Z,35.07
2018-11-22T12:00:43.471Z,32.37
2018-11-22T12:03:10.399Z,37.30
2018-11-22T12:05:37.297Z,35.20
2018-11-22T12:08:04.268Z,35.70
2018-11-22T12:10:31.131Z,32.27
2018-11-22T12:12:58.000Z,33.43
2018-11-22T12:15:25.131Z,32.20
2018-11-22T12:17:51.969Z,36.10
2018-11-22T12:20:19.115Z,33.43
2018-11-22T12:22:50.179Z,35.77
2018-11-22T12:25:18.439Z,30.57
2018-11-22T12:27:46.507Z,36.27
2018-11-22T12:30:15.696Z,36.43
2018-11-22T12:32:58.008Z,36.77
2018-11-22T12:35:30.588Z,32.87
2018-11-22T12:38:03.152Z,31.40
2018-11-22T12:40:30.182Z,39.20
2018-11-22T12:42:57.080Z,34.83
2018-11-22T12:45:24.423Z,33.33
2018-11-22T12:47:51.379Z,34.27
2018-11-22T12:50:18.319Z,32.03
2018-11-22T12:52:45.172Z,32.70
2018-11-22T12:55:12.051Z,34.13
2018-11-22T12:57:38.903Z,35.10
2018-11-22T13:00:11.243Z,32.90
2018-11-22T13:02:38.288Z,30.57
2018-11-22T13:05:06.603Z,29.17
2018-11-22T13:07:33.488Z,32.00
2018-11-22T13:10:00.384Z,30.23
2018-11-22T13:12:27.231Z,32.70
2018-11-22T13:14:54.095Z,34.07
2018-11-22T13:17:20.936Z,30.73
2018-11-22T13:19:47.804Z,31.90
2018-11-22T13:22:14.664Z,34.67
2018-11-22T13:24:41.530Z,29.13
2018-11-22T13:27:08.380Z,34.53
2018-11-22T13:29:35.204Z,34.77
2018-11-22T13:32:02.053Z,32.67
2018-11-22T13:34:28.933Z,34.33
2018-11-22T13:36:55.776Z,27.97
2018-11-22T13:39:22.603Z,31.27
2018-11-22T13:41:49.575Z,32.53
2018-11-22T13:44:16.482Z,34.57
2018-11-22T13:46:43.355Z,32.20
2018-11-22T13:49:10.260Z,32.70
2018-11-22T13:51:37.157Z,30.53
2018-11-22T13:54:04.375Z,31.40
2018-11-22T13:56:31.239Z,33.58
2018-11-22T13:58:58.075Z,32.28
2018-11-22T14:01:24.931Z,35.53
2018-11-22T14:03:51.782Z,33.17
2018-11-22T14:06:18.802Z,28.73
2018-11-22T14:08:45.647Z,33.70
2018-11-22T14:11:14.060Z,30.53
2018-11-22T14:13:39.444Z,32.17
2018-11-22T14:16:06.291Z,29.23
2018-11-22T14:18:33.144Z,29.43
2018-11-22T14:20:59.988Z,30.63
2018-11-22T14:23:26.831Z,35.33
2018-11-22T14:25:53.818Z,32.80
2018-11-22T14:28:20.656Z,31.67
2018-11-22T14:30:48.381Z,33.03
2018-11-22T14:33:15.501Z,36.13
2018-11-22T14:35:42.430Z,33.07
2018-11-22T14:38:09.505Z,30.63
2018-11-22T14:40:36.912Z,32.97
2018-11-22T14:43:03.935Z,33.92
2018-11-22T14:45:31.579Z,33.02
2018-11-22T14:47:59.844Z,35.10
2018-11-22T14:50:29.431Z,35.30
2018-11-22T14:53:01.533Z,32.37
2018-11-22T14:55:28.416Z,32.10
2018-11-22T14:57:55.305Z,34.97
2018-11-22T15:00:22.184Z,35.33
2018-11-22T15:02:49.060Z,34.90
2018-11-22T15:05:16.255Z,31.87
2018-11-22T15:07:43.601Z,32.00
2018-11-22T15:10:14.741Z,33.00
2018-11-22T15:12:42.721Z,32.17
2018-11-22T15:15:12.649Z,30.07
2018-11-22T15:17:39.895Z,37.53
2018-11-22T15:20:08.257Z,32.50
2018-11-22T15:22:35.147Z,30.90
2018-11-22T15:25:02.091Z,33.33
2018-11-22T15:27:28.966Z,32.10
2018-11-22T15:29:55.843Z,33.03
2018-11-22T15:32:22.721Z,33.77
2018-11-22T15:34:49.643Z,36.70
2018-11-22T15:37:16.521Z,35.50
2018-11-22T15:39:43.379Z,37.53
2018-11-22T15:42:10.256Z,36.20
2018-11-22T15:44:37.141Z,35.53
2018-11-22T15:47:04.564Z,39.33
2018-11-22T15:49:31.447Z,35.50
2018-11-22T15:51:58.316Z,29.20
2018-11-22T15:54:25.245Z,59.17
2018-11-22T15:56:52.135Z,38.00
2018-11-22T15:59:19.036Z,40.90
2018-11-22T16:01:46.043Z,37.30
2018-11-22T16:04:12.924Z,31.80
2018-11-22T16:06:39.788Z,32.47
2018-11-22T16:09:07.969Z,34.00
2018-11-22T16:11:34.847Z,40.07
2018-11-22T16:14:01.722Z,32.10
2018-11-22T16:16:28.604Z,35.93
2018-11-22T16:18:55.472Z,34.03
2018-11-22T16:21:22.380Z,31.33
2018-11-22T16:23:49.256Z,33.70
2018-11-22T16:26:16.140Z,29.73
2018-11-22T16:28:43.041Z,36.07
2018-11-22T16:31:09.948Z,32.07
2018-11-22T16:33:36.825Z,34.60
2018-11-22T16:36:03.770Z,42.57
2018-11-22T16:38:30.628Z,37.63
2018-11-22T16:40:57.562Z,33.23
2018-11-22T16:43:24.412Z,34.53
2018-11-22T16:45:51.308Z,38.00
2018-11-22T16:48:18.207Z,35.20
2018-11-22T16:50:45.152Z,34.50
2018-11-22T16:53:12.012Z,37.05
2018-11-22T16:55:38.868Z,38.80
2018-11-22T16:58:06.239Z,50.20
2018-11-22T17:00:35.357Z,42.90
2018-11-22T17:03:04.638Z,32.57
2018-11-22T17:05:31.900Z,42.98
2018-11-22T17:07:59.551Z,36.10
2018-11-22T17:10:27.550Z,39.93
2018-11-22T17:12:55.605Z,41.02
2018-11-22T17:15:24.189Z,42.27
2018-11-22T17:17:51.554Z,39.85
2018-11-22T17:20:19.407Z,43.87
2018-11-22T17:22:47.064Z,38.80
2018-11-22T17:25:16.389Z,43.50
2018-11-22T17:27:44.040Z,39.60
2018-11-22T17:30:13.211Z,44.57
2018-11-22T17:32:40.531Z,43.87
2018-11-22T17:35:08.868Z,45.00
2018-11-22T17:37:35.731Z,44.05
2018-11-22T17:40:03.096Z,47.53
2018-11-22T17:42:29.945Z,55.73
2018-11-22T17:44:56.917Z,51.77
2018-11-22T17:47:23.803Z,43.10
2018-11-22T17:49:50.680Z,50.20
2018-11-22T17:52:17.535Z,45.57
2018-11-22T17:54:44.384Z,50.83
2018-11-22T17:57:11.267Z,51.20
2018-11-22T17:59:38.207Z,50.65
2018-11-22T18:02:05.299Z,48.30
2018-11-22T18:04:32.184Z,49.13
2018-11-22T18:06:59.069Z,49.97
2018-11-22T18:09:25.949Z,45.75
2018-11-22T18:11:52.856Z,44.20
2018-11-22T18:14:19.703Z,49.60
2018-11-22T18:16:46.618Z,51.67
2018-11-22T18:19:13.534Z,54.40
2018-11-22T18:21:40.387Z,48.67
2018-11-22T18:24:07.223Z,49.42
2018-11-22T18:26:34.095Z,45.10
2018-11-22T18:29:00.932Z,51.35
2018-11-22T18:31:27.783Z,49.73
2018-11-22T18:33:54.707Z,51.60
2018-11-22T18:36:21.599Z,51.60
2018-11-22T18:38:48.456Z,53.48
2018-11-22T18:41:15.309Z,46.03
2018-11-22T18:43:42.204Z,48.55
2018-11-22T18:46:09.060Z,50.33
2018-11-22T18:48:35.921Z,54.33
2018-11-22T18:51:02.761Z,52.70
2018-11-22T18:53:29.596Z,52.62
2018-11-22T18:55:56.448Z,51.20
2018-11-22T18:58:23.275Z,50.60
2018-11-22T19:00:50.121Z,47.30
2018-11-22T19:03:18.191Z,47.50
2018-11-22T19:05:45.070Z,46.80
2018-11-22T19:08:11.966Z,49.83
2018-11-22T19:10:39.903Z,48.83
2018-11-22T19:13:07.756Z,48.38
2018-11-22T19:15:36.147Z,46.63
2018-11-22T19:18:03.438Z,49.83
2018-11-22T19:20:32.040Z,49.80
2018-11-22T19:22:59.847Z,46.67
2018-11-22T19:25:26.747Z,50.55
2018-11-22T19:27:55.339Z,47.00
2018-11-22T19:30:23.559Z,48.60
2018-11-22T19:32:51.406Z,48.13
2018-11-22T19:35:19.601Z,47.23
2018-11-22T19:37:46.790Z,50.20
2018-11-22T19:40:15.991Z,51.73
2018-11-22T19:42:44.004Z,45.33
2018-11-22T19:45:12.484Z,50.28
2018-11-22T19:47:39.470Z,42.40
2018-11-22T19:50:08.951Z,51.58
2018-11-22T19:52:35.831Z,50.20
2018-11-22T19:55:02.765Z,46.27
2018-11-22T19:57:29.719Z,47.75
2018-11-22T19:59:56.555Z,46.15
2018-11-22T20:02:23.399Z,47.13
2018-11-22T20:04:50.243Z,44.93
2018-11-22T20:07:17.103Z,41.63
2018-11-22T20:09:43.963Z,43.08
2018-11-22T20:12:10.815Z,44.53
2018-11-22T20:14:37.709Z,47.03
2018-11-22T20:17:04.624Z,45.40
2018-11-22T20:19:31.471Z,46.23
2018-11-22T20:21:58.331Z,44.48
2018-11-22T20:24:25.243Z,41.80
2018-11-22T20:26:52.096Z,45.10
2018-11-22T20:29:18.982Z,46.80
2018-11-22T20:31:46.412Z,45.57
2018-11-22T20:34:12.739Z,42.95
2018-11-22T20:36:39.667Z,43.28
2018-11-22T20:39:08.440Z,42.50
2018-11-22T20:41:35.284Z,41.33
2018-11-22T20:44:02.120Z,42.43
2018-11-22T20:46:28.959Z,40.67
2018-11-22T20:48:55.795Z,47.15
2018-11-22T20:51:22.635Z,46.60
2018-11-22T20:53:49.484Z,48.67
2018-11-22T20:56:16.332Z,50.85
2018-11-22T20:58:43.168Z,50.45
2018-11-22T21:01:10.003Z,47.00
2018-11-22T21:03:36.839Z,48.38
2018-11-22T21:06:04.163Z,53.20
2018-11-22T21:08:31.051Z,42.33
2018-11-22T21:10:57.967Z,48.20
2018-11-22T21:13:24.825Z,48.25
2018-11-22T21:15:51.666Z,45.50
2018-11-22T21:18:18.507Z,50.45
2018-11-22T21:20:45.343Z,46.90
2018-11-22T21:23:12.187Z,47.03
2018-11-22T21:25:39.092Z,47.17
2018-11-22T21:28:06.137Z,50.40
2018-11-22T21:30:34.303Z,46.00
2018-11-22T21:33:01.639Z,49.77
2018-11-22T21:35:28.609Z,49.40
2018-11-22T21:37:56.359Z,47.70
2018-11-22T21:40:23.871Z,48.15
2018-11-22T21:42:50.745Z,48.25
2018-11-22T21:45:19.031Z,51.70
2018-11-22T21:47:45.903Z,48.23
2018-11-22T21:50:13.866Z,46.85
2018-11-22T21:52:40.724Z,46.83
2018-11-22T21:55:09.298Z,46.28
2018-11-22T21:57:37.019Z,44.75
2018-11-22T22:00:05.760Z,43.93
2018-11-22T22:02:32.620Z,46.37
2018-11-22T22:04:59.473Z,46.10
2018-11-22T22:07:26.327Z,39.60
2018-11-22T22:09:53.691Z,44.25
2018-11-22T22:12:20.535Z,51.30
2018-11-22T22:14:47.374Z,47.27
2018-11-22T22:17:14.211Z,47.05
2018-11-22T22:19:41.064Z,42.30
2018-11-22T22:22:07.908Z,44.25
2018-11-22T22:24:34.727Z,43.55
2018-11-22T22:27:01.583Z,43.27
2018-11-22T22:29:28.429Z,45.75
2018-11-22T22:31:55.487Z,45.10
2018-11-22T22:34:22.331Z,38.80
2018-11-22T22:36:49.168Z,48.35
2018-11-22T22:39:16.000Z,46.10
2018-11-22T22:41:42.877Z,40.07
2018-11-22T22:44:09.743Z,45.92
2018-11-22T22:46:36.627Z,42.30
2018-11-22T22:49:03.515Z,45.08
2018-11-22T22:51:30.347Z,46.90
2018-11-22T22:53:57.211Z,39.50
2018-11-22T22:56:24.054Z,41.88
2018-11-22T22:58:50.903Z,44.88
2018-11-22T23:01:17.751Z,40.27
2018-11-22T23:03:44.584Z,43.15
2018-11-22T23:06:11.408Z,46.40
2018-11-22T23:08:38.258Z,46.20
2018-11-22T23:11:05.093Z,44.40
2018-11-22T23:13:31.939Z,42.85
2018-11-22T23:15:58.792Z,41.33
2018-11-22T23:18:25.634Z,48.02
2018-11-22T23:20:52.479Z,41.13
2018-11-22T23:23:19.329Z,42.60
2018-11-22T23:25:46.165Z,43.85
2018-11-22T23:28:12.999Z,44.90
2018-11-22T23:30:39.839Z,46.93
2018-11-22T23:33:07.771Z,40.92
2018-11-22T23:35:34.668Z,44.40
2018-11-22T23:38:01.539Z,41.77
2018-11-22T23:40:29.536Z,43.60
2018-11-22T23:42:56.387Z,42.90
2018-11-22T23:45:24.756Z,43.07
2018-11-22T23:47:51.607Z,43.23
2018-11-22T23:50:19.664Z,43.00
2018-11-22T23:52:47.649Z,40.00
2018-11-22T23:55:14.545Z,46.98
2018-11-22T23:57:41.423Z,43.38
